createdAt,value
2022-07-30T00:01:39.287Z,22.77
2022-07-30T00:04:13.189Z,22.75
2022-07-30T00:06:45.857Z,22.73
2022-07-30T00:09:18.982Z,22.61
2022-07-30T00:11:53.518Z,22.65
2022-07-30T00:14:27.569Z,22.64
2022-07-30T00:17:00.753Z,22.61
2022-07-30T00:19:33.404Z,22.59
2022-07-30T00:22:05.698Z,22.56
2022-07-30T00:24:37.982Z,22.53
2022-07-30T00:27:10.246Z,22.50
2022-07-30T00:29:44.935Z,22.45
2022-07-30T00:32:17.517Z,22.47
2022-07-30T00:34:49.630Z,22.46
2022-07-30T00:37:23.084Z,22.45
2022-07-30T00:39:55.211Z,22.43
2022-07-30T00:42:39.756Z,22.41
2022-07-30T00:45:13.879Z,22.37
2022-07-30T00:47:47.013Z,22.36
2022-07-30T00:50:19.289Z,22.33
2022-07-30T00:52:53.855Z,22.29
2022-07-30T00:55:26.040Z,22.31
2022-07-30T00:57:58.228Z,22.28
2022-07-30T01:00:30.979Z,22.23
2022-07-30T01:03:05.032Z,22.21
2022-07-30T01:05:38.798Z,22.20
2022-07-30T01:08:11.355Z,22.23
2022-07-30T01:10:43.801Z,22.25
2022-07-30T01:13:17.425Z,22.24
2022-07-30T01:15:52.006Z,22.21
2022-07-30T01:18:46.129Z,22.20
2022-07-30T01:21:25.476Z,22.16
2022-07-30T01:24:02.257Z,22.12
2022-07-30T01:26:37.132Z,22.12
2022-07-30T01:29:10.541Z,22.12
2022-07-30T01:31:43.900Z,22.11
2022-07-30T01:34:18.004Z,22.11
2022-07-30T01:36:51.879Z,22.12
2022-07-30T01:39:27.121Z,22.10
2022-07-30T01:42:00.592Z,22.10
2022-07-30T01:44:33.464Z,22.09
2022-07-30T01:47:07.520Z,22.07
2022-07-30T01:49:42.527Z,22.08
2022-07-30T01:52:15.656Z,22.05
2022-07-30T01:54:49.895Z,21.92
2022-07-30T01:57:24.275Z,21.98
2022-07-30T02:00:03.187Z,21.98
2022-07-30T02:02:49.949Z,21.96
2022-07-30T02:05:22.357Z,21.96
2022-07-30T02:08:02.536Z,21.95
2022-07-30T02:10:42.641Z,21.92
2022-07-30T02:13:22.707Z,21.92
2022-07-30T02:15:59.317Z,21.92
2022-07-30T02:18:39.639Z,21.93
2022-07-30T02:21:14.178Z,21.93
2022-07-30T02:23:49.891Z,21.91
2022-07-30T02:26:27.757Z,21.87
2022-07-30T02:29:07.299Z,21.84
2022-07-30T02:31:43.399Z,21.71
2022-07-30T02:34:17.747Z,21.79
2022-07-30T02:36:53.399Z,21.81
2022-07-30T02:39:27.261Z,21.80
2022-07-30T02:42:00.636Z,21.80
2022-07-30T02:44:36.062Z,21.80
2022-07-30T02:47:09.273Z,21.77
2022-07-30T02:49:45.696Z,21.75
2022-07-30T02:52:19.279Z,21.76
2022-07-30T02:54:55.092Z,21.74
2022-07-30T02:57:26.893Z,21.73
2022-07-30T03:00:01.160Z,21.69
2022-07-30T03:02:35.257Z,21.74
2022-07-30T03:05:11.242Z,21.71
2022-07-30T03:07:44.441Z,21.69
2022-07-30T03:10:17.735Z,21.68
2022-07-30T03:12:52.413Z,21.69
2022-07-30T03:15:26.905Z,21.71
2022-07-30T03:18:01.452Z,21.72
2022-07-30T03:20:37.147Z,21.74
2022-07-30T03:23:12.334Z,21.75
2022-07-30T03:25:47.528Z,21.75
2022-07-30T03:28:23.105Z,21.74
2022-07-30T03:30:56.852Z,21.76
2022-07-30T03:33:38.853Z,21.79
2022-07-30T03:36:13.614Z,21.81
2022-07-30T03:39:10.184Z,21.82
2022-07-30T03:41:43.898Z,21.83
2022-07-30T03:44:19.017Z,21.83
2022-07-30T03:46:54.362Z,21.82
2022-07-30T03:49:26.916Z,21.84
2022-07-30T03:51:59.343Z,21.83
2022-07-30T03:54:34.476Z,21.83
2022-07-30T03:57:45.281Z,21.80
2022-07-30T04:00:21.392Z,21.81
2022-07-30T04:02:58.909Z,21.83
2022-07-30T04:05:53.504Z,21.82
2022-07-30T04:08:28.961Z,21.81
2022-07-30T04:11:01.511Z,21.80
2022-07-30T04:13:49.654Z,21.79
2022-07-30T04:16:38.758Z,21.82
2022-07-30T04:19:24.264Z,21.81
2022-07-30T04:22:01.534Z,21.82
2022-07-30T04:24:34.954Z,21.83
2022-07-30T04:27:07.829Z,21.80
2022-07-30T04:29:40.324Z,21.82
2022-07-30T04:32:12.910Z,21.84
2022-07-30T04:34:53.436Z,21.85
2022-07-30T04:37:41.653Z,21.86
2022-07-30T04:40:14.361Z,21.87
2022-07-30T04:42:47.632Z,21.85
2022-07-30T04:45:24.708Z,21.88
2022-07-30T04:48:00.775Z,21.89
2022-07-30T04:50:43.911Z,21.92
2022-07-30T04:53:20.052Z,21.94
2022-07-30T04:56:00.881Z,21.86
2022-07-30T04:58:35.486Z,22.01
2022-07-30T05:01:09.861Z,22.04
2022-07-30T05:03:43.559Z,22.07
2022-07-30T05:06:16.818Z,22.10
2022-07-30T05:08:54.116Z,22.14
2022-07-30T05:11:29.187Z,22.17
2022-07-30T05:14:01.717Z,22.20
2022-07-30T05:16:35.154Z,22.23
2022-07-30T05:19:08.064Z,22.25
2022-07-30T05:21:40.835Z,22.26
2022-07-30T05:24:13.160Z,22.22
2022-07-30T05:26:47.559Z,22.33
2022-07-30T05:29:23.305Z,22.36
2022-07-30T05:32:03.300Z,22.37
2022-07-30T05:34:36.469Z,22.38
2022-07-30T05:37:09.908Z,22.38
2022-07-30T05:39:57.450Z,22.43
2022-07-30T05:42:54.264Z,22.45
2022-07-30T05:45:25.087Z,22.49
2022-07-30T05:47:57.501Z,22.52
2022-07-30T05:50:29.968Z,22.55
2022-07-30T05:53:02.465Z,22.58
2022-07-30T05:56:01.150Z,22.60
2022-07-30T05:58:55.082Z,22.63
2022-07-30T06:01:37.663Z,22.68
2022-07-30T06:04:15.445Z,22.70
2022-07-30T06:06:51.602Z,22.73
2022-07-30T06:09:36.103Z,22.76
2022-07-30T06:12:09.840Z,22.80
2022-07-30T06:14:42.124Z,22.80
2022-07-30T06:17:16.721Z,22.82
2022-07-30T06:20:13.794Z,22.85
2022-07-30T06:22:55.265Z,22.90
2022-07-30T06:25:33.892Z,22.93
2022-07-30T06:28:21.361Z,22.99
2022-07-30T06:30:58.714Z,22.85
2022-07-30T06:33:32.778Z,23.07
2022-07-30T06:36:05.384Z,23.02
2022-07-30T06:38:42.356Z,23.11
2022-07-30T06:41:19.607Z,23.11
2022-07-30T06:43:57.737Z,23.22
2022-07-30T06:46:50.295Z,23.27
2022-07-30T06:49:24.076Z,23.33
2022-07-30T06:51:56.439Z,23.37
2022-07-30T06:54:29.159Z,23.42
2022-07-30T06:57:01.666Z,23.38
2022-07-30T06:59:56.543Z,23.51
2022-07-30T07:02:39.347Z,23.61
2022-07-30T07:05:17.583Z,23.63
2022-07-30T07:07:59.085Z,23.66
2022-07-30T07:10:34.302Z,23.72
2022-07-30T07:13:17.323Z,23.80
2022-07-30T07:15:49.489Z,23.82
2022-07-30T07:18:24.657Z,23.81
2022-07-30T07:21:05.202Z,23.85
2022-07-30T07:23:41.534Z,23.89
2022-07-30T07:26:19.180Z,23.97
2022-07-30T07:28:51.363Z,24.01
2022-07-30T07:32:07.289Z,23.96
2022-07-30T07:34:17.315Z,24.15
2022-07-30T07:36:49.579Z,24.22
2022-07-30T07:39:22.354Z,24.28
2022-07-30T07:41:54.932Z,24.32
2022-07-30T07:44:28.673Z,24.36
2022-07-30T07:47:01.365Z,24.37
2022-07-30T07:49:36.851Z,24.40
2022-07-30T07:52:09.648Z,24.37
2022-07-30T07:54:43.233Z,24.39
2022-07-30T07:57:16.188Z,24.41
2022-07-30T07:59:49.897Z,24.38
2022-07-30T08:02:42.661Z,24.35
2022-07-30T08:05:15.248Z,24.34
2022-07-30T08:07:55.483Z,24.29
2022-07-30T08:10:42.806Z,24.32
2022-07-30T08:13:49.202Z,24.34
2022-07-30T08:16:41.754Z,24.37
2022-07-30T08:19:38.392Z,24.43
2022-07-30T08:22:21.476Z,24.48
2022-07-30T08:24:53.783Z,24.51
2022-07-30T08:27:26.449Z,24.53
2022-07-30T08:29:59.232Z,24.45
2022-07-30T08:32:31.650Z,24.46
2022-07-30T08:35:04.520Z,24.48
2022-07-30T08:37:37.939Z,24.49
2022-07-30T08:40:12.307Z,24.47
2022-07-30T08:42:55.534Z,24.50
2022-07-30T08:45:34.624Z,24.46
2022-07-30T08:48:18.382Z,24.55
2022-07-30T08:50:51.643Z,24.57
2022-07-30T08:53:39.449Z,24.56
2022-07-30T08:56:13.333Z,24.59
2022-07-30T08:58:53.616Z,24.60
2022-07-30T09:01:26.052Z,24.54
2022-07-30T09:04:01.555Z,24.62
2022-07-30T09:06:33.989Z,24.64
2022-07-30T09:09:09.057Z,24.66
2022-07-30T09:11:42.156Z,24.66
2022-07-30T09:14:16.055Z,24.68
2022-07-30T09:16:48.446Z,24.67
2022-07-30T09:19:22.577Z,24.67
2022-07-30T09:22:02.923Z,24.68
2022-07-30T09:24:51.146Z,24.71
2022-07-30T09:27:49.967Z,24.70
2022-07-30T09:30:57.628Z,24.71
2022-07-30T09:33:49.818Z,24.70
2022-07-30T09:36:40.841Z,24.73
2022-07-30T09:39:38.198Z,24.63
2022-07-30T09:42:25.794Z,24.64
2022-07-30T09:45:08.869Z,24.63
2022-07-30T09:47:42.605Z,24.65
2022-07-30T09:50:30.518Z,24.69
2022-07-30T09:53:12.123Z,24.69
2022-07-30T09:55:45.966Z,24.70
2022-07-30T09:58:26.628Z,24.74
2022-07-30T10:01:02.654Z,24.76
2022-07-30T10:04:04.186Z,24.80
2022-07-30T10:06:59.921Z,24.81
2022-07-30T10:09:37.829Z,24.80
2022-07-30T10:12:11.530Z,24.81
2022-07-30T10:14:47.800Z,24.82
2022-07-30T10:17:23.387Z,24.82
2022-07-30T10:20:16.078Z,24.81
2022-07-30T10:23:11.201Z,24.79
2022-07-30T10:26:27.681Z,24.72
2022-07-30T10:29:21.572Z,24.78
2022-07-30T10:32:07.427Z,24.79
2022-07-30T10:34:43.695Z,24.80
2022-07-30T10:37:17.851Z,24.80
2022-07-30T10:39:57.349Z,24.77
2022-07-30T10:42:48.622Z,24.80
2022-07-30T10:45:25.039Z,24.80
2022-07-30T10:47:58.976Z,24.82
2022-07-30T10:50:31.766Z,24.76
2022-07-30T10:53:04.406Z,24.80
2022-07-30T10:55:39.277Z,24.74
2022-07-30T10:58:14.504Z,24.70
2022-07-30T11:01:03.104Z,24.71
2022-07-30T11:03:39.915Z,24.67
2022-07-30T11:06:30.685Z,24.66
2022-07-30T11:09:03.638Z,24.73
2022-07-30T11:12:01.128Z,24.66
2022-07-30T11:15:06.874Z,24.69
2022-07-30T11:18:12.493Z,24.67
2022-07-30T11:21:05.841Z,24.67
2022-07-30T11:23:42.977Z,24.64
2022-07-30T11:26:51.434Z,24.56
2022-07-30T11:29:50.679Z,24.47
2022-07-30T11:32:32.570Z,24.56
2022-07-30T11:35:23.454Z,24.62
2022-07-30T11:38:09.590Z,24.55
2022-07-30T11:41:12.999Z,24.67
2022-07-30T11:43:45.896Z,24.67
2022-07-30T11:46:28.551Z,24.73
2022-07-30T11:49:05.219Z,24.79
2022-07-30T11:51:45.035Z,24.80
2022-07-30T11:54:18.554Z,24.87
2022-07-30T11:56:55.744Z,24.92
2022-07-30T11:59:32.113Z,24.93
2022-07-30T12:02:04.926Z,24.97
2022-07-30T12:04:46.429Z,24.91
2022-07-30T12:07:26.358Z,24.90
2022-07-30T12:10:14.831Z,24.90
2022-07-30T12:12:49.868Z,24.76
2022-07-30T12:15:36.715Z,24.73
2022-07-30T12:18:25.742Z,24.71
2022-07-30T12:21:04.563Z,24.67
2022-07-30T12:23:37.542Z,24.67
2022-07-30T12:26:10.823Z,24.54
2022-07-30T12:28:43.253Z,24.53
2022-07-30T12:31:18.147Z,24.50
2022-07-30T12:33:50.722Z,24.47
2022-07-30T12:36:31.933Z,24.31
2022-07-30T12:39:06.846Z,24.24
2022-07-30T12:41:47.163Z,24.22
2022-07-30T12:44:39.556Z,24.16
2022-07-30T12:47:24.011Z,24.04
2022-07-30T12:50:01.575Z,23.92
2022-07-30T12:52:37.767Z,23.85
2022-07-30T12:55:12.543Z,23.81
2022-07-30T12:57:56.373Z,23.73
2022-07-30T13:00:31.499Z,23.62
2022-07-30T13:03:03.976Z,23.57
2022-07-30T13:05:55.590Z,23.51
2022-07-30T13:08:48.206Z,23.41
2022-07-30T13:11:23.482Z,23.28
2022-07-30T13:13:56.548Z,23.17
2022-07-30T13:16:34.585Z,23.16
2022-07-30T13:19:07.924Z,22.97
2022-07-30T13:21:40.728Z,23.03
2022-07-30T13:24:22.480Z,23.01
2022-07-30T13:26:54.947Z,22.97
2022-07-30T13:29:27.192Z,22.95
2022-07-30T13:31:59.452Z,22.84
2022-07-30T13:34:31.689Z,22.80
2022-07-30T13:37:04.376Z,22.85
2022-07-30T13:39:37.262Z,22.80
2022-07-30T13:42:09.808Z,22.78
2022-07-30T13:44:41.962Z,22.76
2022-07-30T13:47:15.107Z,22.75
2022-07-30T13:49:51.049Z,22.72
2022-07-30T13:52:23.347Z,22.70
2022-07-30T13:54:55.545Z,22.69
2022-07-30T13:57:27.735Z,22.67
2022-07-30T14:00:00.069Z,22.64
2022-07-30T14:02:36.926Z,22.61
2022-07-30T14:05:10.696Z,22.55
2022-07-30T14:07:43.290Z,22.43
2022-07-30T14:10:15.801Z,22.51
2022-07-30T14:12:53.223Z,22.48
2022-07-30T14:15:26.697Z,22.42
2022-07-30T14:17:59.253Z,22.36
2022-07-30T14:20:31.448Z,22.21
2022-07-30T14:23:03.835Z,22.21
2022-07-30T14:25:36.364Z,22.22
2022-07-30T14:28:08.994Z,22.21
2022-07-30T14:30:41.225Z,22.15
2022-07-30T14:33:13.645Z,22.18
2022-07-30T14:35:46.027Z,22.13
2022-07-30T14:38:18.106Z,22.07
2022-07-30T14:40:50.193Z,22.18
2022-07-30T14:43:24.990Z,22.16
2022-07-30T14:45:57.364Z,22.15
2022-07-30T14:48:29.704Z,22.25
2022-07-30T14:51:24.170Z,22.23
2022-07-30T14:53:54.598Z,22.26
2022-07-30T14:56:27.305Z,22.22
2022-07-30T14:59:00.190Z,22.29
2022-07-30T15:01:32.752Z,22.31
2022-07-30T15:04:09.513Z,22.32
2022-07-30T15:06:43.228Z,22.22
2022-07-30T15:09:16.062Z,22.25
2022-07-30T15:12:08.954Z,22.27
2022-07-30T15:14:42.505Z,22.26
2022-07-30T15:17:17.105Z,22.28
2022-07-30T15:19:51.256Z,22.22
2022-07-30T15:22:24.029Z,22.28
2022-07-30T15:24:56.361Z,22.26
2022-07-30T15:27:34.009Z,22.30
2022-07-30T15:30:08.159Z,22.23
2022-07-30T15:32:40.327Z,22.36
2022-07-30T15:35:13.991Z,22.38
2022-07-30T15:37:47.257Z,22.40
2022-07-30T15:40:19.865Z,22.42
2022-07-30T15:42:52.241Z,22.36
2022-07-30T15:45:25.308Z,22.35
2022-07-30T15:47:57.698Z,22.31
2022-07-30T15:50:30.702Z,22.35
2022-07-30T15:53:05.680Z,22.33
2022-07-30T15:55:47.583Z,22.32
2022-07-30T15:58:20.268Z,22.25
2022-07-30T16:00:52.734Z,22.27
2022-07-30T16:03:25.163Z,22.29
2022-07-30T16:05:57.564Z,22.30
2022-07-30T16:08:29.944Z,22.18
2022-07-30T16:11:04.517Z,22.31
2022-07-30T16:13:36.837Z,22.39
2022-07-30T16:16:10.549Z,22.46
2022-07-30T16:18:42.796Z,22.39
2022-07-30T16:21:15.472Z,22.37
2022-07-30T16:23:47.754Z,22.36
2022-07-30T16:26:20.392Z,22.36
2022-07-30T16:28:52.666Z,22.26
2022-07-30T16:31:24.784Z,22.21
2022-07-30T16:33:57.345Z,22.16
2022-07-30T16:36:29.860Z,22.19
2022-07-30T16:39:02.522Z,22.25
2022-07-30T16:41:35.249Z,22.27
2022-07-30T16:44:07.780Z,22.24
2022-07-30T16:46:41.615Z,22.27
2022-07-30T16:49:13.933Z,22.28
2022-07-30T16:51:47.384Z,22.31
2022-07-30T16:54:19.552Z,22.34
2022-07-30T16:56:52.931Z,22.29
2022-07-30T16:59:25.608Z,22.39
2022-07-30T17:01:57.899Z,22.39
2022-07-30T17:04:30.195Z,22.40
2022-07-30T17:07:02.456Z,22.37
2022-07-30T17:09:36.930Z,22.37
2022-07-30T17:12:12.050Z,22.27
2022-07-30T17:14:44.882Z,22.23
2022-07-30T17:17:17.437Z,22.14
2022-07-30T17:19:50.353Z,22.07
2022-07-30T17:22:22.955Z,22.11
2022-07-30T17:24:55.598Z,22.08
2022-07-30T17:27:28.879Z,21.97
2022-07-30T17:30:02.136Z,22.01
2022-07-30T17:32:34.853Z,21.98
2022-07-30T17:35:13.844Z,21.96
2022-07-30T17:37:46.395Z,21.91
2022-07-30T17:40:28.903Z,21.76
2022-07-30T17:43:07.721Z,21.88
2022-07-30T17:45:42.099Z,21.84
2022-07-30T17:48:15.803Z,21.79
2022-07-30T17:50:48.293Z,21.78
2022-07-30T17:53:20.856Z,21.79
2022-07-30T17:55:57.825Z,21.73
2022-07-30T17:58:30.674Z,21.72
2022-07-30T18:01:04.492Z,21.72
2022-07-30T18:03:36.743Z,21.72
2022-07-30T18:06:18.174Z,21.71
2022-07-30T18:08:50.962Z,21.70
2022-07-30T18:11:23.364Z,21.68
2022-07-30T18:13:56.873Z,21.67
2022-07-30T18:16:29.349Z,21.57
2022-07-30T18:19:01.891Z,21.58
2022-07-30T18:21:34.586Z,21.66
2022-07-30T18:24:13.001Z,21.64
2022-07-30T18:26:46.960Z,21.58
2022-07-30T18:29:20.989Z,21.62
2022-07-30T18:31:53.586Z,21.61
2022-07-30T18:34:26.078Z,21.60
2022-07-30T18:36:58.962Z,21.52
2022-07-30T18:39:32.267Z,21.55
2022-07-30T18:42:05.297Z,21.37
2022-07-30T18:44:38.836Z,21.53
2022-07-30T18:47:11.522Z,21.41
2022-07-30T18:49:44.526Z,21.50
2022-07-30T18:52:17.556Z,21.50
2022-07-30T18:54:50.540Z,21.44
2022-07-30T18:57:22.955Z,21.43
2022-07-30T18:59:56.034Z,21.38
2022-07-30T19:02:28.189Z,21.37
2022-07-30T19:05:00.348Z,21.34
2022-07-30T19:07:55.638Z,21.36
2022-07-30T19:10:26.265Z,21.37
2022-07-30T19:12:59.026Z,21.36
2022-07-30T19:15:32.931Z,21.32
2022-07-30T19:18:05.333Z,21.33
2022-07-30T19:20:38.087Z,21.33
2022-07-30T19:23:12.304Z,21.28
2022-07-30T19:25:45.107Z,21.23
2022-07-30T19:28:18.153Z,21.22
2022-07-30T19:30:51.622Z,21.21
2022-07-30T19:33:24.714Z,21.23
2022-07-30T19:35:57.508Z,21.22
2022-07-30T19:38:30.090Z,21.16
2022-07-30T19:41:03.563Z,21.13
2022-07-30T19:43:37.000Z,21.14
2022-07-30T19:46:09.385Z,21.14
2022-07-30T19:48:42.708Z,20.98
2022-07-30T19:51:20.175Z,21.04
2022-07-30T19:53:53.288Z,21.06
2022-07-30T19:56:26.101Z,20.99
2022-07-30T19:59:00.273Z,20.99
2022-07-30T20:01:41.189Z,21.06
2022-07-30T20:04:14.214Z,21.08
2022-07-30T20:06:46.912Z,21.08
2022-07-30T20:09:19.967Z,21.06
2022-07-30T20:11:52.756Z,21.09
2022-07-30T20:14:25.982Z,21.11
2022-07-30T20:17:02.135Z,21.10
2022-07-30T20:19:36.151Z,21.11
2022-07-30T20:22:10.439Z,21.15
2022-07-30T20:24:48.055Z,21.16
2022-07-30T20:27:36.349Z,21.17
2022-07-30T20:30:13.423Z,21.14
2022-07-30T20:32:47.014Z,21.20
2022-07-30T20:35:21.541Z,21.19
2022-07-30T20:37:55.426Z,21.19
2022-07-30T20:40:30.564Z,21.17
2022-07-30T20:43:05.911Z,21.06
2022-07-30T20:45:41.553Z,21.11
2022-07-30T20:48:17.477Z,21.10
2022-07-30T20:50:57.828Z,21.07
2022-07-30T20:53:33.632Z,21.07
2022-07-30T20:56:09.344Z,21.08
2022-07-30T20:58:45.303Z,21.07
2022-07-30T21:01:19.790Z,21.08
2022-07-30T21:03:52.218Z,21.08
2022-07-30T21:06:24.548Z,21.08
2022-07-30T21:08:59.973Z,21.07
2022-07-30T21:11:35.896Z,20.98
2022-07-30T21:14:08.718Z,21.05
2022-07-30T21:16:42.377Z,21.04
2022-07-30T21:19:16.594Z,21.04
2022-07-30T21:21:52.417Z,21.04
2022-07-30T21:24:24.914Z,21.02
2022-07-30T21:26:57.110Z,20.98
2022-07-30T21:29:29.507Z,21.01
2022-07-30T21:32:03.453Z,21.00
2022-07-30T21:34:42.463Z,21.01
2022-07-30T21:37:15.730Z,21.02
2022-07-30T21:39:48.508Z,20.98
2022-07-30T21:42:26.095Z,20.89
2022-07-30T21:45:02.963Z,20.99
2022-07-30T21:47:35.574Z,20.97
2022-07-30T21:50:09.760Z,20.95
2022-07-30T21:52:41.911Z,20.95
2022-07-30T21:55:14.722Z,20.95
2022-07-30T21:57:47.380Z,20.95
2022-07-30T22:00:32.422Z,20.93
2022-07-30T22:03:04.848Z,20.93
2022-07-30T22:05:57.850Z,20.85
2022-07-30T22:08:30.010Z,20.93
2022-07-30T22:11:04.935Z,20.85
2022-07-30T22:13:53.514Z,20.91
2022-07-30T22:16:26.812Z,20.91
2022-07-30T22:19:00.898Z,20.90
2022-07-30T22:21:34.789Z,20.88
2022-07-30T22:24:11.551Z,20.88
2022-07-30T22:27:12.532Z,20.87
2022-07-30T22:29:49.023Z,20.88
2022-07-30T22:32:21.854Z,20.87
2022-07-30T22:34:55.803Z,20.85
2022-07-30T22:37:34.189Z,20.84
2022-07-30T22:40:08.718Z,20.83
2022-07-30T22:42:49.707Z,20.85
2022-07-30T22:45:46.928Z,20.84
2022-07-30T22:48:16.241Z,20.83
2022-07-30T22:50:51.794Z,20.81
2022-07-30T22:54:02.542Z,20.77
2022-07-30T22:56:23.963Z,20.76
2022-07-30T22:58:56.737Z,20.77
2022-07-30T23:01:29.112Z,20.76
2022-07-30T23:04:02.617Z,20.75
2022-07-30T23:06:35.029Z,20.74
2022-07-30T23:09:07.271Z,20.73
2022-07-30T23:11:40.002Z,20.73
2022-07-30T23:14:12.736Z,20.71
2022-07-30T23:16:50.214Z,20.69
2022-07-30T23:19:22.827Z,20.69
2022-07-30T23:21:55.315Z,20.69
2022-07-30T23:24:28.054Z,20.68
2022-07-30T23:27:00.292Z,20.61
2022-07-30T23:29:33.081Z,20.69
2022-07-30T23:32:05.814Z,20.69
2022-07-30T23:34:39.065Z,20.68
2022-07-30T23:37:14.687Z,20.64
2022-07-30T23:39:47.075Z,20.56
2022-07-30T23:42:19.347Z,20.63
2022-07-30T23:44:51.921Z,20.60
2022-07-30T23:47:54.542Z,20.63
2022-07-30T23:50:18.709Z,20.62
2022-07-30T23:52:52.061Z,20.61
2022-07-30T23:55:24.617Z,20.46
2022-07-30T23:57:57.123Z,20.59
